Historyczne dane pomiarowe

Dodano dane terminowe – wersja testowa.

Dane z okresu 1951-2019

Wersja bazy: 1.34 [2019-03-16, lista zmian], aktualizacja planowana na 2019-04-15

Dane meteo z obszaru Polski uzyskane na podstawie danych udostępnionych przez Instytut Meteorologii i Gospodarki Wodnej – Państwowy Instytut Badawczy.

 

Wybierz Datę:    

       

TemperaturaWilgotnośćWiatrCiśnienieOpadyŚniegCzas trwania zjawisk
 Stacja t tx tn tng RH VA  wxwx mslp ppp RRR   cm mm wxwxwxwxwxwxwx
1961-08-14 14.1 19.8 8.4--- 0.3 0.7---- 0.0------------
1961-08-13 13.0 17.1 12.0--- 5.7 1.0---- 10.2------------
1961-08-12 18.6 24.2 16.5--- 2.7 2.3---- 14.0------------
1961-08-11 24.1 33.4 18.8--- 1.0 1.3---- 0.0------------
1961-08-10 23.7 29.9 19.1--- 4.7 0.7---- 0.0------------
1961-08-09 23.2 29.5 13.3--- 2.7 0.0---- 22.0------------
1961-08-08 18.8 22.4 15.5--- 5.7 1.3---- 0.0------------
1961-08-07 23.0 30.9 15.8--- 2.0 1.3---- 0.0------------
1961-08-06 22.5 30.4 13.1--- 0.0 2.0---- 0.0------------
1961-08-05 18.3 24.2 14.1--- 2.7 0.3---- 0.0------------
1961-08-04 16.5 22.0 9.9--- 2.0 0.7---- 0.0------------
1961-08-03 17.8 22.8 13.8--- 2.7 3.3---- 0.0------------
1961-08-02 19.6 26.3 9.1--- 0.3 1.7---- 0.0------------
1961-08-01 14.9 21.2 10.4--- 1.0 4.0---- 0.0------------
1961-07-31 14.2 16.7 11.1--- 8.0 6.0---- 2.1------------
1961-07-30 11.8 14.2 11.2--- 8.0 3.0---- 44.0------------
1961-07-29 14.6 18.8 12.5--- 8.0 2.0---- 17.2------------
1961-07-28 20.4 27.1 15.5--- 5.3 4.0---- 10.2------------
1961-07-27 20.7 27.0 10.3--- 2.0 2.7---- 0.0------------
1961-07-26 17.1 22.6 11.5--- 0.0 2.0---- 0.0------------
1961-07-25 14.2 17.1 10.8--- 8.0 2.7---- 0.0------------
1961-07-24 15.0 19.8 9.5--- 6.3 2.0---- 0.0------------
1961-07-23 15.6 20.8 10.8--- 4.0 1.3---- 0.0------------
1961-07-22 14.8 19.4 12.9--- 6.7 4.7---- 0.4------------
1961-07-21 15.1 19.2 10.5--- 7.3 2.3---- 6.4------------
1961-07-20 14.4 18.1 7.5--- 3.3 0.0---- 3.6------------
1961-07-19 14.9 21.2 7.7--- 6.0 2.0---- 2.1------------
1961-07-18 14.5 19.2 8.8--- 3.0 3.3---- 0.8------------
1961-07-17 15.6 22.8 12.9--- 6.7 0.7---- 1.5------------
1961-07-16 17.3 22.2 14.7--- 2.7 3.3---- 0.0------------
1961-07-15 20.2 24.8 9.5--- 2.7 2.3---- 1.7------------
1961-07-14 14.5 19.8 12.7--- 4.7 3.3---- 0.0------------
1961-07-13 20.5 29.5 13.2--- 2.7 6.0---- 7.6------------
1961-07-12 20.5 27.3 9.9--- 2.7 1.0---- 0.0------------
1961-07-11 15.8 20.8 5.5--- 1.0 2.3---- 0.0------------
1961-07-10 13.1 19.4 9.9--- 6.0 3.3---- 0.0------------
1961-07-09 15.4 23.4 7.8--- 0.0 1.3---- 0.0------------
1961-07-08 13.8 20.8 5.3--- 2.0 0.7---- 0.0------------
1961-07-07 13.0 17.7 8.0--- 6.0 1.3---- 0.0------------
1961-07-06 13.2 16.7 6.5--- 2.0 2.7---- 2.8------------
1961-07-05 14.2 21.3 11.8--- 6.7 1.0---- 0.0------------
1961-07-04 22.4 29.7 14.5--- 2.0 2.0---- 3.2------------
1961-07-03 22.4 30.3 10.7--- 0.0 1.3---- 0.0------------
1961-07-02 21.5 27.9 11.8--- 0.0 0.0---- 0.0------------
1961-07-01 20.8 26.7 10.4--- 0.0 0.7---- 0.0------------
1961-06-30 18.3 23.2 10.8--- 0.0 1.3---- 0.0------------
1961-06-29 15.2 20.6 8.5--- 4.3 3.0---- 0.0------------
1961-06-28 14.6 19.6 12.5--- 8.0 5.7---- 1.6------------
1961-06-27 22.5 32.8 16.2--- 2.7 2.7---- 25.1------------
1961-06-26 22.7 31.5 13.4--- 3.7 2.0---- 0.3------------
1961-06-25 22.2 29.3 9.4--- 0.0 3.3---- 0.0------------
1961-06-24 18.6 25.3 10.9--- 3.0 3.7---- 0.0------------
1961-06-23 17.8 23.7 14.9--- 2.0 2.3---- 0.0------------
1961-06-22 18.1 24.2 9.8--- 2.7 3.0---- 7.6------------
1961-06-21 17.0 24.2 6.0--- 0.0 0.7---- 0.0------------
1961-06-20 15.7 20.7 10.8--- 2.3 2.7---- 0.0------------
1961-06-19 19.0 27.7 12.3--- 2.7 2.0---- 2.6------------
1961-06-18 17.9 26.3 7.9--- 0.0 2.0---- 0.0------------
1961-06-17 15.4 22.6 5.5--- 0.3 2.0---- 0.0------------
1961-06-16 13.8 19.2 6.5--- 0.0 2.0---- 0.0------------
2068.3 ms

 

Źródłem pochodzenia danych jest Instytut Meteorologii i Gospodarki Wodnej – Państwowy Instytut Badawczy. Dane Instytutu Meteorologii i Gospodarki Wodnej – Państwowego Instytutu Badawczego zostały przetworzone.

Dane źródłowe można odnaleźć na stronie https://dane.imgw.pl